Airfield :
LOGIN :

Register | Disclaimer

   EN    FR    IT 

 










Legend :    VFR   Marginal VFR   IFR   Intensive IFR   Very Intensive IFR
Visi :
Ceiling :
>= 8 km
>= 3000ft
5 to 8 km
1000 to 3000 ft
1500m to 5 km
500 to 1000 ft
800 to 1500m
200 to 500 ft
< 800m
< 200 ft
Symbols :   Thunderstorms  Fog  Heavy snow  Heavy precipitations  Wind > 20 kt
SIGMETs :     Misc.  Thunderstorms  Icing  Turbulence  Mountain Waves  Volcanic Ashes






- Airport Elevation : 236 ft
- IATA code : MMX


ESMS - Malmö Sturup

CURRENT METAR :
  • 241120Z 16009KT CAVOK 08/02 Q1000

EXPIRED METARs :
  • 241050Z 17007KT CAVOK 07/02 Q0999
  • 241020Z 15006KT CAVOK 07/03 Q0999
  • 240950Z 16007KT CAVOK 07/03 Q0999
  • 240920Z 15006KT CAVOK 05/03 Q0999
  • 240850Z 15005KT CAVOK 05/03 Q0999
  • 240820Z 13005KT 100V160 CAVOK 04/02 Q0999
  • 240750Z 11004KT CAVOK 03/03 Q0999
  • 240720Z 11003KT CAVOK 01/01 Q0999
  • 240650Z 12003KT CAVOK 01/00 Q0999

TAF TAF ESMS
Valid from the 24 at 12:00 until the 25 at 12:00 UTC


241102Z 2412/2512 17008KT 9999 FEW030
TEMPO 2417/2422 4000 SHRA BKN012 SCT020CB
TEMPO 2422/2509 BKN010



MET'MAP, your aeronautical weather chart ! - Copyright ORBIFLY December 2007 - Disclaimer

ORBIFLY MET'MAP TEAM :

Programming & Development : Alexandra Zaïnal
Original concept : Baudouin d'Aumeries
Technical & hardware support : Manuel Goepfert
Assistance : Marc-Olivier Méhu




SOURCES & CREDITS :

   NOAA